sensor_id;sensor_type;location;lat;lon;timestamp;P1;durP1;ratioP1;P2;durP2;ratioP2
14472;SDS011;7322;50.872;4.386;2023-10-09T00:01:59;7.32;;;5.78;;
14472;SDS011;7322;50.872;4.386;2023-10-09T00:07:38;6.57;;;5.60;;
14472;SDS011;7322;50.872;4.386;2023-10-09T00:10:06;6.45;;;5.30;;
14472;SDS011;7322;50.872;4.386;2023-10-09T00:12:37;6.40;;;5.55;;
14472;SDS011;7322;50.872;4.386;2023-10-09T00:17:58;7.10;;;5.20;;
14472;SDS011;7322;50.872;4.386;2023-10-09T00:20:27;6.85;;;5.22;;
14472;SDS011;7322;50.872;4.386;2023-10-09T00:23:06;5.93;;;5.13;;
14472;SDS011;7322;50.872;4.386;2023-10-09T00:25:40;7.38;;;5.32;;
14472;SDS011;7322;50.872;4.386;2023-10-09T00:31:13;6.63;;;5.15;;
14472;SDS011;7322;50.872;4.386;2023-10-09T00:33:41;7.03;;;5.70;;
14472;SDS011;7322;50.872;4.386;2023-10-09T00:36:15;6.18;;;5.50;;
14472;SDS011;7322;50.872;4.386;2023-10-09T00:44:15;5.65;;;4.78;;
14472;SDS011;7322;50.872;4.386;2023-10-09T00:46:44;5.80;;;5.20;;
14472;SDS011;7322;50.872;4.386;2023-10-09T00:49:12;6.05;;;5.13;;
14472;SDS011;7322;50.872;4.386;2023-10-09T00:51:42;5.80;;;4.82;;
14472;SDS011;7322;50.872;4.386;2023-10-09T00:54:22;5.72;;;5.03;;
14472;SDS011;7322;50.872;4.386;2023-10-09T00:56:53;5.72;;;4.82;;
14472;SDS011;7322;50.872;4.386;2023-10-09T00:59:31;5.78;;;4.93;;
14472;SDS011;7322;50.872;4.386;2023-10-09T01:02:11;6.72;;;5.20;;
14472;SDS011;7322;50.872;4.386;2023-10-09T01:05:00;5.63;;;4.82;;
14472;SDS011;7322;50.872;4.386;2023-10-09T01:07:43;7.03;;;5.15;;
14472;SDS011;7322;50.872;4.386;2023-10-09T01:12:59;5.38;;;4.55;;
14472;SDS011;7322;50.872;4.386;2023-10-09T01:18:27;6.35;;;4.82;;
14472;SDS011;7322;50.872;4.386;2023-10-09T01:21:03;5.30;;;4.38;;
14472;SDS011;7322;50.872;4.386;2023-10-09T01:23:31;5.50;;;4.60;;
14472;SDS011;7322;50.872;4.386;2023-10-09T01:28:31;5.13;;;4.10;;
14472;SDS011;7322;50.872;4.386;2023-10-09T01:33:39;4.78;;;4.18;;
14472;SDS011;7322;50.872;4.386;2023-10-09T01:36:15;5.00;;;4.50;;
14472;SDS011;7322;50.872;4.386;2023-10-09T01:41:59;4.82;;;4.32;;
14472;SDS011;7322;50.872;4.386;2023-10-09T01:44:27;5.00;;;4.50;;
14472;SDS011;7322;50.872;4.386;2023-10-09T01:47:12;5.13;;;4.30;;
14472;SDS011;7322;50.872;4.386;2023-10-09T01:49:51;4.43;;;4.00;;
14472;SDS011;7322;50.872;4.386;2023-10-09T01:52:19;5.47;;;4.20;;
14472;SDS011;7322;50.872;4.386;2023-10-09T01:57:34;5.88;;;4.22;;
14472;SDS011;7322;50.872;4.386;2023-10-09T02:00:22;5.57;;;4.43;;
14472;SDS011;7322;50.872;4.386;2023-10-09T02:08:48;4.50;;;3.65;;
14472;SDS011;7322;50.872;4.386;2023-10-09T02:11:17;5.22;;;4.30;;
14472;SDS011;7322;50.872;4.386;2023-10-09T02:13:51;4.70;;;4.20;;
14472;SDS011;7322;50.872;4.386;2023-10-09T02:16:28;4.82;;;4.05;;
14472;SDS011;7322;50.872;4.386;2023-10-09T02:18:59;4.78;;;4.30;;
14472;SDS011;7322;50.872;4.386;2023-10-09T02:24:39;5.53;;;4.20;;
14472;SDS011;7322;50.872;4.386;2023-10-09T02:27:24;4.72;;;4.22;;
14472;SDS011;7322;50.872;4.386;2023-10-09T02:30:15;5.15;;;4.65;;
14472;SDS011;7322;50.872;4.386;2023-10-09T02:33:02;5.68;;;4.70;;
14472;SDS011;7322;50.872;4.386;2023-10-09T02:35:46;5.18;;;4.00;;
14472;SDS011;7322;50.872;4.386;2023-10-09T02:38:22;4.35;;;3.95;;
14472;SDS011;7322;50.872;4.386;2023-10-09T02:43:55;4.50;;;3.95;;
14472;SDS011;7322;50.872;4.386;2023-10-09T02:46:41;5.03;;;4.18;;
14472;SDS011;7322;50.872;4.386;2023-10-09T02:52:01;4.43;;;3.80;;
14472;SDS011;7322;50.872;4.386;2023-10-09T02:57:32;4.82;;;4.32;;
14472;SDS011;7322;50.872;4.386;2023-10-09T03:00:02;5.40;;;4.00;;
14472;SDS011;7322;50.872;4.386;2023-10-09T03:02:35;5.38;;;4.07;;
14472;SDS011;7322;50.872;4.386;2023-10-09T03:05:17;4.45;;;3.95;;
14472;SDS011;7322;50.872;4.386;2023-10-09T03:07:45;5.55;;;4.30;;
14472;SDS011;7322;50.872;4.386;2023-10-09T03:10:14;4.57;;;3.80;;
14472;SDS011;7322;50.872;4.386;2023-10-09T03:12:51;4.68;;;4.00;;
14472;SDS011;7322;50.872;4.386;2023-10-09T03:15:22;4.63;;;4.10;;
14472;SDS011;7322;50.872;4.386;2023-10-09T03:17:56;4.40;;;4.00;;
14472;SDS011;7322;50.872;4.386;2023-10-09T03:20:31;4.07;;;3.63;;
14472;SDS011;7322;50.872;4.386;2023-10-09T03:23:00;4.22;;;3.75;;
14472;SDS011;7322;50.872;4.386;2023-10-09T03:25:42;4.38;;;3.88;;
14472;SDS011;7322;50.872;4.386;2023-10-09T03:28:12;4.95;;;4.00;;
14472;SDS011;7322;50.872;4.386;2023-10-09T03:33:29;3.90;;;3.33;;
14472;SDS011;7322;50.872;4.386;2023-10-09T03:36:04;4.50;;;3.67;;
14472;SDS011;7322;50.872;4.386;2023-10-09T03:38:34;6.18;;;4.03;;
14472;SDS011;7322;50.872;4.386;2023-10-09T03:41:01;4.50;;;3.70;;
14472;SDS011;7322;50.872;4.386;2023-10-09T03:43:32;4.78;;;3.70;;
14472;SDS011;7322;50.872;4.386;2023-10-09T03:46:18;4.47;;;3.40;;
14472;SDS011;7322;50.872;4.386;2023-10-09T03:48:50;5.15;;;3.90;;
14472;SDS011;7322;50.872;4.386;2023-10-09T03:51:21;4.35;;;3.70;;
14472;SDS011;7322;50.872;4.386;2023-10-09T03:54:01;4.50;;;3.67;;
14472;SDS011;7322;50.872;4.386;2023-10-09T03:59:15;4.72;;;3.70;;
14472;SDS011;7322;50.872;4.386;2023-10-09T04:04:33;4.05;;;3.60;;
14472;SDS011;7322;50.872;4.386;2023-10-09T04:07:01;3.70;;;3.13;;
14472;SDS011;7322;50.872;4.386;2023-10-09T04:09:30;4.65;;;3.83;;
14472;SDS011;7322;50.872;4.386;2023-10-09T04:12:04;4.32;;;3.63;;
14472;SDS011;7322;50.872;4.386;2023-10-09T04:14:53;4.10;;;3.42;;
14472;SDS011;7322;50.872;4.386;2023-10-09T04:17:30;4.43;;;3.58;;
14472;SDS011;7322;50.872;4.386;2023-10-09T04:20:02;3.72;;;3.10;;
14472;SDS011;7322;50.872;4.386;2023-10-09T04:22:48;4.97;;;4.13;;
14472;SDS011;7322;50.872;4.386;2023-10-09T04:25:25;5.03;;;3.92;;
14472;SDS011;7322;50.872;4.386;2023-10-09T04:27:56;4.07;;;3.38;;
14472;SDS011;7322;50.872;4.386;2023-10-09T04:30:48;5.38;;;3.50;;
14472;SDS011;7322;50.872;4.386;2023-10-09T04:33:27;5.43;;;3.88;;
14472;SDS011;7322;50.872;4.386;2023-10-09T04:36:08;5.50;;;3.78;;
14472;SDS011;7322;50.872;4.386;2023-10-09T04:42:01;5.07;;;3.60;;
14472;SDS011;7322;50.872;4.386;2023-10-09T04:44:48;4.07;;;3.42;;
14472;SDS011;7322;50.872;4.386;2023-10-09T04:47:38;4.28;;;3.70;;
14472;SDS011;7322;50.872;4.386;2023-10-09T04:50:24;4.80;;;3.90;;
14472;SDS011;7322;50.872;4.386;2023-10-09T04:53:17;5.05;;;3.75;;
14472;SDS011;7322;50.872;4.386;2023-10-09T04:55:56;4.53;;;3.85;;
14472;SDS011;7322;50.872;4.386;2023-10-09T04:58:31;4.40;;;3.72;;
14472;SDS011;7322;50.872;4.386;2023-10-09T05:01:12;5.55;;;3.80;;
14472;SDS011;7322;50.872;4.386;2023-10-09T05:03:42;4.47;;;3.67;;
14472;SDS011;7322;50.872;4.386;2023-10-09T05:06:15;4.78;;;3.85;;
14472;SDS011;7322;50.872;4.386;2023-10-09T05:09:15;4.40;;;3.55;;
14472;SDS011;7322;50.872;4.386;2023-10-09T05:11:45;5.07;;;3.33;;
14472;SDS011;7322;50.872;4.386;2023-10-09T05:14:31;5.50;;;3.47;;
14472;SDS011;7322;50.872;4.386;2023-10-09T05:17:27;4.53;;;3.70;;
14472;SDS011;7322;50.872;4.386;2023-10-09T05:20:02;4.85;;;3.50;;
14472;SDS011;7322;50.872;4.386;2023-10-09T05:22:51;7.88;;;3.80;;
14472;SDS011;7322;50.872;4.386;2023-10-09T05:25:48;6.82;;;4.13;;
14472;SDS011;7322;50.872;4.386;2023-10-09T05:28:30;8.15;;;4.10;;
14472;SDS011;7322;50.872;4.386;2023-10-09T05:30:57;8.20;;;4.45;;
14472;SDS011;7322;50.872;4.386;2023-10-09T05:33:33;5.75;;;3.92;;
14472;SDS011;7322;50.872;4.386;2023-10-09T05:39:01;6.88;;;4.53;;
14472;SDS011;7322;50.872;4.386;2023-10-09T05:44:43;7.70;;;4.50;;
14472;SDS011;7322;50.872;4.386;2023-10-09T05:51:04;8.23;;;4.75;;
14472;SDS011;7322;50.872;4.386;2023-10-09T05:53:39;6.75;;;3.63;;
14472;SDS011;7322;50.872;4.386;2023-10-09T05:56:48;10.20;;;4.53;;
14472;SDS011;7322;50.872;4.386;2023-10-09T05:59:41;7.25;;;4.15;;
14472;SDS011;7322;50.872;4.386;2023-10-09T06:02:22;6.95;;;4.40;;
14472;SDS011;7322;50.872;4.386;2023-10-09T06:05:24;7.10;;;3.83;;
14472;SDS011;7322;50.872;4.386;2023-10-09T06:08:28;8.65;;;4.82;;
14472;SDS011;7322;50.872;4.386;2023-10-09T06:11:26;6.13;;;3.88;;
14472;SDS011;7322;50.872;4.386;2023-10-09T06:17:22;8.23;;;4.47;;
14472;SDS011;7322;50.872;4.386;2023-10-09T06:19:58;9.48;;;4.40;;
14472;SDS011;7322;50.872;4.386;2023-10-09T06:22:24;7.68;;;4.30;;
14472;SDS011;7322;50.872;4.386;2023-10-09T06:28:18;11.15;;;4.30;;
14472;SDS011;7322;50.872;4.386;2023-10-09T06:31:12;10.23;;;4.63;;
14472;SDS011;7322;50.872;4.386;2023-10-09T06:33:58;9.38;;;4.57;;
14472;SDS011;7322;50.872;4.386;2023-10-09T06:36:48;8.68;;;4.30;;
14472;SDS011;7322;50.872;4.386;2023-10-09T06:39:19;8.73;;;4.05;;
14472;SDS011;7322;50.872;4.386;2023-10-09T06:42:09;10.30;;;4.57;;
14472;SDS011;7322;50.872;4.386;2023-10-09T06:44:59;7.03;;;4.30;;
14472;SDS011;7322;50.872;4.386;2023-10-09T06:47:29;7.95;;;4.13;;
14472;SDS011;7322;50.872;4.386;2023-10-09T06:50:04;8.15;;;4.60;;
14472;SDS011;7322;50.872;4.386;2023-10-09T06:52:54;7.97;;;4.10;;
14472;SDS011;7322;50.872;4.386;2023-10-09T06:55:45;8.35;;;4.50;;
14472;SDS011;7322;50.872;4.386;2023-10-09T06:58:18;7.38;;;3.97;;
14472;SDS011;7322;50.872;4.386;2023-10-09T07:00:59;9.80;;;4.30;;
14472;SDS011;7322;50.872;4.386;2023-10-09T07:04:03;7.55;;;4.07;;
14472;SDS011;7322;50.872;4.386;2023-10-09T07:06:45;7.57;;;4.20;;
14472;SDS011;7322;50.872;4.386;2023-10-09T07:09:16;7.78;;;4.20;;
14472;SDS011;7322;50.872;4.386;2023-10-09T07:11:46;6.72;;;4.25;;
14472;SDS011;7322;50.872;4.386;2023-10-09T07:14:24;7.38;;;4.05;;
14472;SDS011;7322;50.872;4.386;2023-10-09T07:17:10;8.38;;;4.65;;
14472;SDS011;7322;50.872;4.386;2023-10-09T07:19:48;9.02;;;4.20;;
14472;SDS011;7322;50.872;4.386;2023-10-09T07:22:36;7.07;;;4.07;;
14472;SDS011;7322;50.872;4.386;2023-10-09T07:25:29;6.85;;;4.60;;
14472;SDS011;7322;50.872;4.386;2023-10-09T07:28:19;6.22;;;4.00;;
14472;SDS011;7322;50.872;4.386;2023-10-09T07:31:17;6.43;;;3.97;;
14472;SDS011;7322;50.872;4.386;2023-10-09T07:34:04;5.72;;;3.97;;
14472;SDS011;7322;50.872;4.386;2023-10-09T07:36:55;7.90;;;4.40;;
14472;SDS011;7322;50.872;4.386;2023-10-09T07:39:26;6.43;;;4.22;;
14472;SDS011;7322;50.872;4.386;2023-10-09T07:42:02;6.13;;;4.30;;
14472;SDS011;7322;50.872;4.386;2023-10-09T07:44:52;5.97;;;4.43;;
14472;SDS011;7322;50.872;4.386;2023-10-09T07:47:25;6.97;;;4.43;;
14472;SDS011;7322;50.872;4.386;2023-10-09T07:50:12;7.63;;;3.85;;
14472;SDS011;7322;50.872;4.386;2023-10-09T07:52:50;6.15;;;4.28;;
14472;SDS011;7322;50.872;4.386;2023-10-09T08:05:33;6.05;;;4.03;;
14472;SDS011;7322;50.872;4.386;2023-10-09T08:08:22;7.05;;;4.30;;
14472;SDS011;7322;50.872;4.386;2023-10-09T08:13:55;5.53;;;4.05;;
14472;SDS011;7322;50.872;4.386;2023-10-09T08:19:13;4.85;;;3.90;;
14472;SDS011;7322;50.872;4.386;2023-10-09T08:22:01;6.32;;;4.00;;
14472;SDS011;7322;50.872;4.386;2023-10-09T08:25:10;6.13;;;4.25;;
14472;SDS011;7322;50.872;4.386;2023-10-09T08:27:59;5.65;;;4.05;;
14472;SDS011;7322;50.872;4.386;2023-10-09T08:30:50;6.28;;;4.03;;
14472;SDS011;7322;50.872;4.386;2023-10-09T08:33:28;4.97;;;4.00;;
14472;SDS011;7322;50.872;4.386;2023-10-09T08:36:27;5.65;;;4.22;;
14472;SDS011;7322;50.872;4.386;2023-10-09T08:41:42;5.85;;;3.85;;
14472;SDS011;7322;50.872;4.386;2023-10-09T08:44:10;5.10;;;3.95;;
14472;SDS011;7322;50.872;4.386;2023-10-09T08:46:40;4.53;;;3.90;;
14472;SDS011;7322;50.872;4.386;2023-10-09T08:49:25;6.68;;;4.13;;
14472;SDS011;7322;50.872;4.386;2023-10-09T08:52:02;6.15;;;4.05;;
14472;SDS011;7322;50.872;4.386;2023-10-09T08:54:30;5.13;;;3.78;;
14472;SDS011;7322;50.872;4.386;2023-10-09T08:57:06;5.65;;;3.88;;
14472;SDS011;7322;50.872;4.386;2023-10-09T09:02:40;5.63;;;3.97;;
14472;SDS011;7322;50.872;4.386;2023-10-09T09:08:03;4.82;;;3.85;;
14472;SDS011;7322;50.872;4.386;2023-10-09T09:10:51;5.90;;;3.90;;
14472;SDS011;7322;50.872;4.386;2023-10-09T09:13:31;6.55;;;4.13;;
14472;SDS011;7322;50.872;4.386;2023-10-09T09:16:01;4.80;;;3.83;;
14472;SDS011;7322;50.872;4.386;2023-10-09T09:18:28;5.70;;;3.78;;
14472;SDS011;7322;50.872;4.386;2023-10-09T09:21:16;6.45;;;4.10;;
14472;SDS011;7322;50.872;4.386;2023-10-09T09:24:01;7.88;;;4.05;;
14472;SDS011;7322;50.872;4.386;2023-10-09T09:26:46;4.72;;;3.63;;
14472;SDS011;7322;50.872;4.386;2023-10-09T09:32:30;5.18;;;3.78;;
14472;SDS011;7322;50.872;4.386;2023-10-09T09:35:01;5.18;;;4.05;;
14472;SDS011;7322;50.872;4.386;2023-10-09T09:37:34;4.40;;;3.88;;
14472;SDS011;7322;50.872;4.386;2023-10-09T09:43:08;6.22;;;4.30;;
14472;SDS011;7322;50.872;4.386;2023-10-09T09:45:49;5.43;;;4.03;;
14472;SDS011;7322;50.872;4.386;2023-10-09T09:48:16;5.13;;;4.10;;
14472;SDS011;7322;50.872;4.386;2023-10-09T09:50:46;5.10;;;3.70;;
14472;SDS011;7322;50.872;4.386;2023-10-09T09:56:03;5.25;;;3.80;;
14472;SDS011;7322;50.872;4.386;2023-10-09T09:58:31;4.97;;;3.97;;
14472;SDS011;7322;50.872;4.386;2023-10-09T10:01:12;4.40;;;3.80;;
14472;SDS011;7322;50.872;4.386;2023-10-09T10:03:51;5.93;;;4.07;;
14472;SDS011;7322;50.872;4.386;2023-10-09T10:06:24;5.50;;;3.85;;
14472;SDS011;7322;50.872;4.386;2023-10-09T10:08:55;5.03;;;4.10;;
14472;SDS011;7322;50.872;4.386;2023-10-09T10:17:45;3.85;;;3.35;;
14472;SDS011;7322;50.872;4.386;2023-10-09T10:23:51;5.20;;;3.75;;
14472;SDS011;7322;50.872;4.386;2023-10-09T10:38:24;4.53;;;3.95;;
14472;SDS011;7322;50.872;4.386;2023-10-09T10:49:32;5.22;;;3.80;;
14472;SDS011;7322;50.872;4.386;2023-10-09T10:52:06;5.38;;;4.03;;
14472;SDS011;7322;50.872;4.386;2023-10-09T10:54:44;5.80;;;3.72;;
14472;SDS011;7322;50.872;4.386;2023-10-09T10:57:16;5.38;;;3.88;;
14472;SDS011;7322;50.872;4.386;2023-10-09T11:03:01;3.75;;;3.35;;
14472;SDS011;7322;50.872;4.386;2023-10-09T11:15:15;4.53;;;4.07;;
14472;SDS011;7322;50.872;4.386;2023-10-09T11:26:56;3.95;;;3.55;;
14472;SDS011;7322;50.872;4.386;2023-10-09T11:29:32;4.00;;;3.30;;
14472;SDS011;7322;50.872;4.386;2023-10-09T11:32:16;4.05;;;3.45;;
14472;SDS011;7322;50.872;4.386;2023-10-09T11:37:36;3.85;;;3.30;;
14472;SDS011;7322;50.872;4.386;2023-10-09T11:49:23;5.15;;;3.53;;
14472;SDS011;7322;50.872;4.386;2023-10-09T11:52:09;4.45;;;3.50;;
14472;SDS011;7322;50.872;4.386;2023-10-09T11:55:02;4.40;;;3.70;;
14472;SDS011;7322;50.872;4.386;2023-10-09T12:07:14;4.15;;;3.25;;
14472;SDS011;7322;50.872;4.386;2023-10-09T12:09:54;4.28;;;3.80;;
14472;SDS011;7322;50.872;4.386;2023-10-09T12:12:23;4.82;;;3.63;;
14472;SDS011;7322;50.872;4.386;2023-10-09T12:14:53;3.78;;;3.40;;
14472;SDS011;7322;50.872;4.386;2023-10-09T12:17:28;4.90;;;3.38;;
14472;SDS011;7322;50.872;4.386;2023-10-09T12:20:03;4.32;;;3.47;;
14472;SDS011;7322;50.872;4.386;2023-10-09T12:28:20;3.47;;;3.17;;
14472;SDS011;7322;50.872;4.386;2023-10-09T12:33:32;4.30;;;3.45;;
14472;SDS011;7322;50.872;4.386;2023-10-09T12:36:11;4.35;;;3.70;;
14472;SDS011;7322;50.872;4.386;2023-10-09T12:39:01;4.72;;;3.63;;
14472;SDS011;7322;50.872;4.386;2023-10-09T12:41:30;4.32;;;3.90;;
14472;SDS011;7322;50.872;4.386;2023-10-09T12:47:01;5.18;;;3.97;;
14472;SDS011;7322;50.872;4.386;2023-10-09T12:49:48;4.68;;;3.67;;
14472;SDS011;7322;50.872;4.386;2023-10-09T12:52:22;5.05;;;3.15;;
14472;SDS011;7322;50.872;4.386;2023-10-09T12:55:00;4.03;;;3.20;;
14472;SDS011;7322;50.872;4.386;2023-10-09T12:57:32;3.78;;;3.25;;
14472;SDS011;7322;50.872;4.386;2023-10-09T12:59:59;4.35;;;3.60;;
14472;SDS011;7322;50.872;4.386;2023-10-09T13:02:29;3.63;;;3.33;;
14472;SDS011;7322;50.872;4.386;2023-10-09T13:04:57;4.10;;;3.30;;
14472;SDS011;7322;50.872;4.386;2023-10-09T13:07:30;5.88;;;3.55;;
14472;SDS011;7322;50.872;4.386;2023-10-09T13:09:57;4.10;;;3.15;;
14472;SDS011;7322;50.872;4.386;2023-10-09T13:12:37;3.92;;;3.50;;
14472;SDS011;7322;50.872;4.386;2023-10-09T13:15:07;4.47;;;3.58;;
14472;SDS011;7322;50.872;4.386;2023-10-09T13:17:36;4.57;;;3.50;;
14472;SDS011;7322;50.872;4.386;2023-10-09T13:20:04;4.38;;;3.17;;
14472;SDS011;7322;50.872;4.386;2023-10-09T13:22:44;4.10;;;3.40;;
14472;SDS011;7322;50.872;4.386;2023-10-09T13:25:12;4.63;;;3.58;;
14472;SDS011;7322;50.872;4.386;2023-10-09T13:27:42;3.90;;;3.20;;
14472;SDS011;7322;50.872;4.386;2023-10-09T13:30:16;3.75;;;3.45;;
14472;SDS011;7322;50.872;4.386;2023-10-09T13:32:50;4.70;;;3.38;;
14472;SDS011;7322;50.872;4.386;2023-10-09T13:35:19;5.93;;;3.53;;
14472;SDS011;7322;50.872;4.386;2023-10-09T13:38:06;4.57;;;3.50;;
14472;SDS011;7322;50.872;4.386;2023-10-09T13:40:35;5.22;;;3.97;;
14472;SDS011;7322;50.872;4.386;2023-10-09T13:43:02;4.65;;;3.67;;
14472;SDS011;7322;50.872;4.386;2023-10-09T13:45:32;4.00;;;3.55;;
14472;SDS011;7322;50.872;4.386;2023-10-09T13:50:57;4.03;;;3.30;;
14472;SDS011;7322;50.872;4.386;2023-10-09T13:53:27;5.15;;;3.78;;
14472;SDS011;7322;50.872;4.386;2023-10-09T13:55:55;4.05;;;3.28;;
14472;SDS011;7322;50.872;4.386;2023-10-09T13:58:22;6.55;;;3.78;;
14472;SDS011;7322;50.872;4.386;2023-10-09T14:00:49;3.67;;;3.25;;
14472;SDS011;7322;50.872;4.386;2023-10-09T14:03:19;3.63;;;3.20;;
14472;SDS011;7322;50.872;4.386;2023-10-09T14:05:51;3.95;;;3.30;;
14472;SDS011;7322;50.872;4.386;2023-10-09T14:08:20;4.38;;;3.58;;
14472;SDS011;7322;50.872;4.386;2023-10-09T14:10:49;5.03;;;3.28;;
14472;SDS011;7322;50.872;4.386;2023-10-09T14:13:17;4.07;;;3.40;;
14472;SDS011;7322;50.872;4.386;2023-10-09T14:15:53;6.07;;;3.33;;
14472;SDS011;7322;50.872;4.386;2023-10-09T14:18:23;4.78;;;3.13;;
14472;SDS011;7322;50.872;4.386;2023-10-09T14:20:51;4.28;;;3.20;;
14472;SDS011;7322;50.872;4.386;2023-10-09T14:23:24;3.75;;;3.15;;
14472;SDS011;7322;50.872;4.386;2023-10-09T14:25:57;3.83;;;3.08;;
14472;SDS011;7322;50.872;4.386;2023-10-09T14:28:27;3.67;;;3.25;;
14472;SDS011;7322;50.872;4.386;2023-10-09T14:30:57;3.85;;;3.20;;
14472;SDS011;7322;50.872;4.386;2023-10-09T14:33:26;4.57;;;3.63;;
14472;SDS011;7322;50.872;4.386;2023-10-09T14:36:01;4.38;;;3.40;;
14472;SDS011;7322;50.872;4.386;2023-10-09T14:38:30;3.35;;;3.05;;
14472;SDS011;7322;50.872;4.386;2023-10-09T14:40:59;3.40;;;3.10;;
14472;SDS011;7322;50.872;4.386;2023-10-09T14:43:29;3.90;;;3.50;;
14472;SDS011;7322;50.872;4.386;2023-10-09T14:45:59;4.28;;;3.58;;
14472;SDS011;7322;50.872;4.386;2023-10-09T14:48:26;5.45;;;3.50;;
14472;SDS011;7322;50.872;4.386;2023-10-09T14:50:54;4.07;;;3.65;;
14472;SDS011;7322;50.872;4.386;2023-10-09T14:53:31;3.90;;;3.40;;
14472;SDS011;7322;50.872;4.386;2023-10-09T14:55:59;3.67;;;3.20;;
14472;SDS011;7322;50.872;4.386;2023-10-09T14:58:30;4.60;;;3.45;;
14472;SDS011;7322;50.872;4.386;2023-10-09T15:01:07;4.20;;;3.80;;
14472;SDS011;7322;50.872;4.386;2023-10-09T15:03:38;3.67;;;3.17;;
14472;SDS011;7322;50.872;4.386;2023-10-09T15:06:08;3.50;;;3.20;;
14472;SDS011;7322;50.872;4.386;2023-10-09T15:11:09;4.57;;;3.40;;
14472;SDS011;7322;50.872;4.386;2023-10-09T15:13:37;3.47;;;3.15;;
14472;SDS011;7322;50.872;4.386;2023-10-09T15:16:04;3.92;;;3.22;;
14472;SDS011;7322;50.872;4.386;2023-10-09T15:18:31;3.85;;;3.22;;
14472;SDS011;7322;50.872;4.386;2023-10-09T15:20:59;4.35;;;3.20;;
14472;SDS011;7322;50.872;4.386;2023-10-09T15:23:27;4.40;;;3.42;;
14472;SDS011;7322;50.872;4.386;2023-10-09T15:25:56;3.83;;;3.20;;
14472;SDS011;7322;50.872;4.386;2023-10-09T15:28:24;4.25;;;3.40;;
14472;SDS011;7322;50.872;4.386;2023-10-09T15:30:55;4.70;;;3.28;;
14472;SDS011;7322;50.872;4.386;2023-10-09T15:33:23;4.00;;;3.38;;
14472;SDS011;7322;50.872;4.386;2023-10-09T15:35:57;4.38;;;3.20;;
14472;SDS011;7322;50.872;4.386;2023-10-09T15:38:24;3.90;;;3.10;;
14472;SDS011;7322;50.872;4.386;2023-10-09T15:40:56;5.20;;;3.53;;
14472;SDS011;7322;50.872;4.386;2023-10-09T15:43:26;4.22;;;3.40;;
14472;SDS011;7322;50.872;4.386;2023-10-09T15:45:55;4.68;;;3.08;;
14472;SDS011;7322;50.872;4.386;2023-10-09T15:48:23;4.43;;;3.20;;
14472;SDS011;7322;50.872;4.386;2023-10-09T15:50:50;5.18;;;3.65;;
14472;SDS011;7322;50.872;4.386;2023-10-09T15:53:19;4.13;;;3.20;;
14472;SDS011;7322;50.872;4.386;2023-10-09T15:55:50;3.80;;;2.95;;
14472;SDS011;7322;50.872;4.386;2023-10-09T15:58:25;3.70;;;3.30;;
14472;SDS011;7322;50.872;4.386;2023-10-09T16:00:54;4.07;;;3.47;;
14472;SDS011;7322;50.872;4.386;2023-10-09T16:03:22;4.07;;;3.50;;
14472;SDS011;7322;50.872;4.386;2023-10-09T16:05:51;5.03;;;3.50;;
14472;SDS011;7322;50.872;4.386;2023-10-09T16:08:20;4.45;;;3.38;;
14472;SDS011;7322;50.872;4.386;2023-10-09T16:10:47;4.80;;;3.30;;
14472;SDS011;7322;50.872;4.386;2023-10-09T16:13:18;4.10;;;3.30;;
14472;SDS011;7322;50.872;4.386;2023-10-09T16:15:47;4.97;;;3.20;;
14472;SDS011;7322;50.872;4.386;2023-10-09T16:18:15;3.90;;;3.20;;
14472;SDS011;7322;50.872;4.386;2023-10-09T16:20:45;4.22;;;3.10;;
14472;SDS011;7322;50.872;4.386;2023-10-09T16:23:15;5.03;;;3.30;;
14472;SDS011;7322;50.872;4.386;2023-10-09T16:25:48;5.10;;;3.38;;
14472;SDS011;7322;50.872;4.386;2023-10-09T16:28:19;4.25;;;3.20;;
14472;SDS011;7322;50.872;4.386;2023-10-09T16:30:54;4.35;;;3.17;;
14472;SDS011;7322;50.872;4.386;2023-10-09T16:33:24;5.85;;;3.20;;
14472;SDS011;7322;50.872;4.386;2023-10-09T16:35:52;7.10;;;3.80;;
14472;SDS011;7322;50.872;4.386;2023-10-09T16:38:25;3.58;;;3.08;;
14472;SDS011;7322;50.872;4.386;2023-10-09T16:40:53;5.55;;;3.30;;
14472;SDS011;7322;50.872;4.386;2023-10-09T16:43:21;4.88;;;3.38;;
14472;SDS011;7322;50.872;4.386;2023-10-09T16:45:52;6.18;;;3.55;;
14472;SDS011;7322;50.872;4.386;2023-10-09T16:48:24;6.60;;;3.50;;
14472;SDS011;7322;50.872;4.386;2023-10-09T16:50:55;5.90;;;3.58;;
14472;SDS011;7322;50.872;4.386;2023-10-09T16:53:23;6.00;;;3.50;;
14472;SDS011;7322;50.872;4.386;2023-10-09T16:55:51;6.80;;;3.50;;
14472;SDS011;7322;50.872;4.386;2023-10-09T16:58:22;4.75;;;3.20;;
14472;SDS011;7322;50.872;4.386;2023-10-09T17:00:50;4.50;;;3.92;;
14472;SDS011;7322;50.872;4.386;2023-10-09T17:03:23;6.78;;;3.90;;
14472;SDS011;7322;50.872;4.386;2023-10-09T17:05:53;6.53;;;3.85;;
14472;SDS011;7322;50.872;4.386;2023-10-09T17:08:23;5.85;;;3.78;;
14472;SDS011;7322;50.872;4.386;2023-10-09T17:10:56;7.53;;;4.38;;
14472;SDS011;7322;50.872;4.386;2023-10-09T17:13:26;7.13;;;4.00;;
14472;SDS011;7322;50.872;4.386;2023-10-09T17:15:53;10.05;;;3.72;;
14472;SDS011;7322;50.872;4.386;2023-10-09T17:18:20;5.53;;;3.40;;
14472;SDS011;7322;50.872;4.386;2023-10-09T17:20:50;8.10;;;3.88;;
14472;SDS011;7322;50.872;4.386;2023-10-09T17:23:19;4.57;;;3.55;;
14472;SDS011;7322;50.872;4.386;2023-10-09T17:25:46;5.18;;;4.03;;
14472;SDS011;7322;50.872;4.386;2023-10-09T17:28:22;5.75;;;3.95;;
14472;SDS011;7322;50.872;4.386;2023-10-09T17:31:00;8.10;;;4.13;;
14472;SDS011;7322;50.872;4.386;2023-10-09T17:33:36;4.78;;;3.40;;
14472;SDS011;7322;50.872;4.386;2023-10-09T17:36:04;9.05;;;4.05;;
14472;SDS011;7322;50.872;4.386;2023-10-09T17:38:32;7.18;;;3.70;;
14472;SDS011;7322;50.872;4.386;2023-10-09T17:41:05;6.82;;;3.88;;
14472;SDS011;7322;50.872;4.386;2023-10-09T17:43:33;6.55;;;3.63;;
14472;SDS011;7322;50.872;4.386;2023-10-09T17:46:02;7.55;;;4.13;;
14472;SDS011;7322;50.872;4.386;2023-10-09T17:48:38;8.02;;;4.50;;
14472;SDS011;7322;50.872;4.386;2023-10-09T17:51:08;7.15;;;4.00;;
14472;SDS011;7322;50.872;4.386;2023-10-09T17:53:35;7.55;;;3.65;;
14472;SDS011;7322;50.872;4.386;2023-10-09T17:56:03;6.13;;;4.07;;
14472;SDS011;7322;50.872;4.386;2023-10-09T17:58:32;6.25;;;3.92;;
14472;SDS011;7322;50.872;4.386;2023-10-09T18:01:01;6.07;;;3.88;;
14472;SDS011;7322;50.872;4.386;2023-10-09T18:03:38;5.57;;;3.85;;
14472;SDS011;7322;50.872;4.386;2023-10-09T18:06:07;7.80;;;4.20;;
14472;SDS011;7322;50.872;4.386;2023-10-09T18:08:39;6.07;;;3.92;;
14472;SDS011;7322;50.872;4.386;2023-10-09T18:11:07;7.03;;;3.95;;
14472;SDS011;7322;50.872;4.386;2023-10-09T18:13:34;8.25;;;4.20;;
14472;SDS011;7322;50.872;4.386;2023-10-09T18:16:02;6.15;;;4.13;;
14472;SDS011;7322;50.872;4.386;2023-10-09T18:18:35;7.00;;;4.30;;
14472;SDS011;7322;50.872;4.386;2023-10-09T18:21:04;7.85;;;4.30;;
14472;SDS011;7322;50.872;4.386;2023-10-09T18:26:31;6.80;;;4.03;;
14472;SDS011;7322;50.872;4.386;2023-10-09T18:29:00;6.40;;;4.03;;
14472;SDS011;7322;50.872;4.386;2023-10-09T18:31:27;5.97;;;4.18;;
14472;SDS011;7322;50.872;4.386;2023-10-09T18:33:54;7.10;;;4.43;;
14472;SDS011;7322;50.872;4.386;2023-10-09T18:38:55;6.43;;;3.90;;
14472;SDS011;7322;50.872;4.386;2023-10-09T18:41:22;6.15;;;4.03;;
14472;SDS011;7322;50.872;4.386;2023-10-09T18:43:50;7.75;;;4.18;;
14472;SDS011;7322;50.872;4.386;2023-10-09T18:46:20;6.57;;;4.10;;
14472;SDS011;7322;50.872;4.386;2023-10-09T18:48:50;7.15;;;4.40;;
14472;SDS011;7322;50.872;4.386;2023-10-09T18:51:18;4.55;;;3.80;;
14472;SDS011;7322;50.872;4.386;2023-10-09T18:53:48;9.57;;;4.20;;
14472;SDS011;7322;50.872;4.386;2023-10-09T18:56:15;7.78;;;4.30;;
14472;SDS011;7322;50.872;4.386;2023-10-09T18:58:46;6.43;;;4.15;;
14472;SDS011;7322;50.872;4.386;2023-10-09T19:01:15;5.65;;;3.80;;
14472;SDS011;7322;50.872;4.386;2023-10-09T19:03:42;5.88;;;4.22;;
14472;SDS011;7322;50.872;4.386;2023-10-09T19:06:12;5.82;;;4.05;;
14472;SDS011;7322;50.872;4.386;2023-10-09T19:08:50;5.50;;;3.97;;
14472;SDS011;7322;50.872;4.386;2023-10-09T19:11:21;7.43;;;4.10;;
14472;SDS011;7322;50.872;4.386;2023-10-09T19:13:56;5.88;;;3.92;;